createdAt,value
2022-12-16T00:00:17.902Z,99576.03
2022-12-16T00:02:47.759Z,99579.47
2022-12-16T00:05:16.334Z,99579.34
2022-12-16T00:07:44.638Z,99582.53
2022-12-16T00:10:13.287Z,99575.66
2022-12-16T00:12:41.688Z,99576.41
2022-12-16T00:15:10.665Z,99578.84
2022-12-16T00:17:39.644Z,99572.84
2022-12-16T00:20:10.642Z,99577.19
2022-12-16T00:22:38.967Z,99567.75
2022-12-16T00:25:08.246Z,99580.63
2022-12-16T00:27:36.772Z,99577.19
2022-12-16T00:30:05.930Z,99576.41
2022-12-16T00:32:34.338Z,99578.22
2022-12-16T00:35:02.640Z,99569.53
2022-12-16T00:37:32.703Z,99578.84
2022-12-16T00:40:01.002Z,99574.63
2022-12-16T00:42:29.346Z,99576.41
2022-12-16T00:44:57.686Z,99585.69
2022-12-16T00:47:25.971Z,99586.59
2022-12-16T00:49:55.175Z,99576.41
2022-12-16T00:52:23.981Z,99573.13
2022-12-16T00:54:53.708Z,99581.75
2022-12-16T00:57:23.627Z,99577.56
2022-12-16T00:59:51.944Z,99574.09
2022-12-16T01:02:20.543Z,99575.03
2022-12-16T01:04:49.022Z,99578.47
2022-12-16T01:07:17.400Z,99577.56
2022-12-16T01:09:45.728Z,99579.97
2022-12-16T01:12:15.620Z,99585.06
2022-12-16T01:14:44.096Z,99580.75
2022-12-16T01:17:12.611Z,99586.72
2022-12-16T01:19:40.901Z,99584.94
2022-12-16T01:22:09.558Z,99589.13
2022-12-16T01:24:37.948Z,99593.19
2022-12-16T01:27:06.251Z,99593.19
2022-12-16T01:29:35.981Z,99595.63
2022-12-16T01:32:06.325Z,99598.03
2022-12-16T01:34:34.690Z,99598.81
2022-12-16T01:37:03.014Z,99601.34
2022-12-16T01:39:31.505Z,99601.34
2022-12-16T01:41:59.847Z,99605.66
2022-12-16T01:44:28.440Z,99612.56
2022-12-16T01:47:04.231Z,99615.09
2022-12-16T01:49:38.777Z,99615.09
2022-12-16T01:52:08.454Z,99613.31
2022-12-16T01:54:40.791Z,99619.16
2022-12-16T01:57:13.189Z,99627.53
2022-12-16T01:59:45.637Z,99618.91
2022-12-16T02:02:15.752Z,99614.56
2022-12-16T02:05:05.131Z,99621.94
2022-12-16T02:07:33.511Z,99620.91
2022-12-16T02:10:01.816Z,99620.78
2022-12-16T02:12:36.447Z,99623.94
2022-12-16T02:15:19.904Z,99622.19
2022-12-16T02:17:58.862Z,99631.34
2022-12-16T02:20:59.754Z,99626.13
2022-12-16T02:23:53.015Z,99620.91
2022-12-16T02:26:55.579Z,99619.88
2022-12-16T02:29:51.611Z,99622.16
2022-12-16T02:32:26.733Z,99618.72
2022-12-16T02:34:58.180Z,99623.66
2022-12-16T02:37:38.905Z,99632.06
2022-12-16T02:40:16.960Z,99632.81
2022-12-16T02:42:50.035Z,99634.31
2022-12-16T02:45:26.606Z,99630.78
2022-12-16T02:47:56.572Z,99629.75
2022-12-16T02:50:29.533Z,99632.31
2022-12-16T02:52:58.998Z,99629.63
2022-12-16T02:55:45.899Z,99641.44
2022-12-16T02:58:21.028Z,99637.88
2022-12-16T03:00:57.603Z,99635.31
2022-12-16T03:03:33.604Z,99631.00
2022-12-16T03:06:03.461Z,99637.75
2022-12-16T03:08:35.342Z,99640.16
2022-12-16T03:11:06.693Z,99640.78
2022-12-16T03:13:40.578Z,99644.97
2022-12-16T03:16:12.132Z,99643.94
2022-12-16T03:18:45.176Z,99642.16
2022-12-16T03:21:15.614Z,99637.69
2022-12-16T03:23:48.772Z,99638.31
2022-12-16T03:26:22.917Z,99638.31
2022-12-16T03:28:57.245Z,99644.16
2022-12-16T03:31:36.064Z,99647.47
2022-12-16T03:34:13.367Z,99648.22
2022-12-16T03:36:45.227Z,99654.19
2022-12-16T03:39:14.803Z,99653.31
2022-12-16T03:41:45.426Z,99655.84
2022-12-16T03:44:14.096Z,99659.16
2022-12-16T03:46:42.530Z,99662.44
2022-12-16T03:49:12.262Z,99663.22
2022-12-16T03:51:40.870Z,99670.84
2022-12-16T03:54:09.155Z,99660.53
2022-12-16T03:56:37.473Z,99659.63
2022-12-16T03:59:05.801Z,99660.41
2022-12-16T04:01:34.336Z,99656.84
2022-12-16T04:04:02.920Z,99657.72
2022-12-16T04:06:32.861Z,99660.88
2022-12-16T04:09:01.204Z,99660.75
2022-12-16T04:11:47.027Z,99660.63
2022-12-16T04:14:32.694Z,99667.38
2022-12-16T04:17:18.820Z,99663.78
2022-12-16T04:20:05.467Z,99663.63
2022-12-16T04:22:55.412Z,99663.53
2022-12-16T04:25:27.057Z,99676.09
2022-12-16T04:27:55.345Z,99677.75
2022-12-16T04:30:23.818Z,99684.47
2022-12-16T04:33:13.224Z,99686.25
2022-12-16T04:35:58.989Z,99684.47
2022-12-16T04:38:45.933Z,99689.56
2022-12-16T04:41:32.276Z,99691.19
2022-12-16T04:44:18.273Z,99696.28
2022-12-16T04:47:04.396Z,99691.06
2022-12-16T04:49:50.598Z,99695.28
2022-12-16T04:52:37.145Z,99691.81
2022-12-16T04:55:25.898Z,99703.63
2022-12-16T04:58:13.649Z,99692.56
2022-12-16T05:01:00.515Z,99706.06
2022-12-16T05:03:46.681Z,99707.81
2022-12-16T05:06:33.020Z,99708.44
2022-12-16T05:09:18.990Z,99706.78
2022-12-16T05:12:05.815Z,99712.63
2022-12-16T05:14:51.669Z,99709.34
2022-12-16T05:17:37.890Z,99710.09
2022-12-16T05:20:25.136Z,99713.38
2022-12-16T05:23:13.783Z,99732.06
2022-12-16T05:25:59.558Z,99733.44
2022-12-16T05:28:47.052Z,99735.09
2022-12-16T05:31:32.778Z,99735.97
2022-12-16T05:34:21.174Z,99735.97
2022-12-16T05:37:06.255Z,99748.69
2022-12-16T05:39:52.285Z,99749.47
2022-12-16T05:42:37.983Z,99746.91
2022-12-16T05:45:25.825Z,99755.44
2022-12-16T05:48:11.434Z,99758.69
2022-12-16T05:50:57.040Z,99756.94
2022-12-16T05:53:43.040Z,99772.19
2022-12-16T05:56:28.728Z,99770.41
2022-12-16T05:59:14.631Z,99782.19
2022-12-16T06:02:01.830Z,99784.72
2022-12-16T06:04:47.963Z,99790.72
2022-12-16T06:07:33.579Z,99794.91
2022-12-16T06:10:19.604Z,99799.84
2022-12-16T06:13:05.920Z,99801.50
2022-12-16T06:15:51.536Z,99798.97
2022-12-16T06:18:38.865Z,99795.66
2022-12-16T06:21:24.505Z,99800.75
2022-12-16T06:24:10.410Z,99800.75
2022-12-16T06:26:56.408Z,99797.31
2022-12-16T06:29:42.067Z,99804.94
2022-12-16T06:32:27.724Z,99805.69
2022-12-16T06:35:15.092Z,99807.31
2022-12-16T06:38:00.733Z,99815.84
2022-12-16T06:40:51.735Z,99809.88
2022-12-16T06:43:41.121Z,99808.09
2022-12-16T06:46:26.896Z,99820.81
2022-12-16T06:49:12.906Z,99824.22
2022-12-16T06:51:56.499Z,99835.28
2022-12-16T06:54:42.306Z,99835.28
2022-12-16T06:57:27.969Z,99837.81
2022-12-16T07:00:13.707Z,99843.78
2022-12-16T07:02:59.351Z,99846.34
2022-12-16T07:05:45.324Z,99843.78
2022-12-16T07:08:32.314Z,99848.13
2022-12-16T07:11:18.072Z,99848.13
2022-12-16T07:14:04.038Z,99859.19
2022-12-16T07:16:49.691Z,99861.72
2022-12-16T07:19:35.572Z,99861.88
2022-12-16T07:22:21.236Z,99877.25
2022-12-16T07:25:08.252Z,99876.53
2022-12-16T07:27:53.946Z,99879.06
2022-12-16T07:30:39.552Z,99889.50
2022-12-16T07:33:25.239Z,99887.84
2022-12-16T07:36:10.994Z,99899.78
2022-12-16T07:39:04.919Z,99903.38
2022-12-16T07:41:52.109Z,99904.31
2022-12-16T07:44:38.635Z,99913.09
2022-12-16T07:47:24.698Z,99912.47
2022-12-16T07:50:10.226Z,99909.31
2022-12-16T07:52:55.867Z,99922.19
2022-12-16T07:55:41.652Z,99920.66
2022-12-16T07:58:28.842Z,99921.69
2022-12-16T08:01:11.135Z,99923.63
2022-12-16T08:03:53.471Z,99931.41
2022-12-16T08:06:44.907Z,99926.59
2022-12-16T08:09:30.958Z,99943.94
2022-12-16T08:12:21.938Z,99944.22
2022-12-16T08:15:09.211Z,99946.31
2022-12-16T08:17:55.245Z,99954.34
2022-12-16T08:20:41.172Z,99951.34
2022-12-16T08:23:26.752Z,99954.31
2022-12-16T08:26:12.621Z,99960.72
2022-12-16T08:29:05.454Z,99960.25
2022-12-16T08:32:09.481Z,99960.78
2022-12-16T08:34:55.377Z,99963.91
2022-12-16T08:37:41.150Z,99953.41
2022-12-16T08:40:35.380Z,99965.16
2022-12-16T08:43:18.327Z,99966.63
2022-12-16T08:46:04.303Z,99975.84
2022-12-16T08:48:51.596Z,99981.78
2022-12-16T08:51:40.435Z,99980.78
2022-12-16T08:54:26.081Z,99991.06
2022-12-16T08:57:12.245Z,99990.19
2022-12-16T08:59:58.330Z,99991.91
2022-12-16T09:02:44.551Z,100002.94
2022-12-16T09:05:32.472Z,100007.31
2022-12-16T09:08:18.823Z,100009.91
2022-12-16T09:11:04.987Z,100006.78
2022-12-16T09:13:51.491Z,100008.47
2022-12-16T09:16:37.910Z,100010.31
2022-12-16T09:19:23.751Z,100015.44
2022-12-16T09:22:11.390Z,100017.00
2022-12-16T09:24:57.589Z,100030.56
2022-12-16T09:27:43.966Z,100025.47
2022-12-16T09:30:30.617Z,100027.78
2022-12-16T09:33:15.516Z,100033.69
2022-12-16T09:36:01.388Z,100030.13
2022-12-16T09:38:48.931Z,100031.66
2022-12-16T09:41:53.375Z,100033.19
2022-12-16T09:44:53.564Z,100033.19
2022-12-16T09:47:49.983Z,100034.75
2022-12-16T09:50:40.543Z,100042.41
2022-12-16T09:53:31.432Z,100044.94
2022-12-16T09:56:21.523Z,100055.94
2022-12-16T09:59:20.399Z,100043.91
2022-12-16T10:02:07.146Z,100042.09
2022-12-16T10:04:53.903Z,100052.22
2022-12-16T10:07:43.329Z,100048.72
2022-12-16T10:10:41.045Z,100056.09
2022-12-16T10:13:39.749Z,100050.63
2022-12-16T10:16:34.345Z,100049.66
2022-12-16T10:19:30.733Z,100051.94
2022-12-16T10:22:29.089Z,100060.38
2022-12-16T10:25:24.842Z,100060.09
2022-12-16T10:28:19.396Z,100061.59
2022-12-16T10:31:06.963Z,100063.88
2022-12-16T10:33:53.955Z,100066.91
2022-12-16T10:36:44.818Z,100068.41
2022-12-16T10:39:42.501Z,100081.81
2022-12-16T10:42:39.166Z,100078.09
2022-12-16T10:45:36.509Z,100073.56
2022-12-16T10:48:24.648Z,100071.44
2022-12-16T10:51:10.713Z,100076.16
2022-12-16T10:54:00.399Z,100070.63
2022-12-16T10:57:05.940Z,100071.88
2022-12-16T10:59:58.017Z,100074.75
2022-12-16T11:02:46.001Z,100071.66
2022-12-16T11:05:52.013Z,100069.34
2022-12-16T11:08:45.232Z,100063.69
2022-12-16T11:11:33.703Z,100074.28
2022-12-16T11:14:33.810Z,100073.50
2022-12-16T11:17:36.644Z,100079.78
2022-12-16T11:20:37.829Z,100076.53
2022-12-16T11:23:35.666Z,100079.47
2022-12-16T11:26:24.672Z,100083.13
2022-12-16T11:29:28.158Z,100089.38
2022-12-16T11:32:32.177Z,100087.97
2022-12-16T11:35:28.835Z,100089.97
2022-12-16T11:38:16.559Z,100090.97
2022-12-16T11:41:04.785Z,100100.69
2022-12-16T11:43:52.793Z,100092.34
2022-12-16T11:46:47.069Z,100100.25
2022-12-16T11:49:43.328Z,100100.47
2022-12-16T11:52:37.205Z,100100.81
2022-12-16T11:56:04.177Z,100100.28
2022-12-16T11:58:52.247Z,100094.72
2022-12-16T12:01:45.720Z,100089.03
2022-12-16T12:04:33.260Z,100095.28
2022-12-16T12:07:46.236Z,100098.19
2022-12-16T12:10:49.394Z,100098.41
2022-12-16T12:14:04.678Z,100103.88
2022-12-16T12:17:02.141Z,100103.22
2022-12-16T12:20:00.411Z,100105.13
2022-12-16T12:22:54.142Z,100102.75
2022-12-16T12:25:45.747Z,100106.25
2022-12-16T12:28:43.637Z,100107.13
2022-12-16T12:31:44.086Z,100109.03
2022-12-16T12:34:39.721Z,100113.38
2022-12-16T12:37:34.229Z,100119.53
2022-12-16T12:40:36.273Z,100112.84
2022-12-16T12:43:31.477Z,100116.41
2022-12-16T12:46:25.915Z,100113.03
2022-12-16T12:49:24.139Z,100119.19
2022-12-16T12:52:19.305Z,100123.53
2022-12-16T12:55:17.204Z,100116.84
2022-12-16T12:58:07.895Z,100119.53
2022-12-16T13:01:01.119Z,100115.50
2022-12-16T13:03:53.108Z,100116.50
2022-12-16T13:06:42.368Z,100129.56
2022-12-16T13:09:44.404Z,100134.97
2022-12-16T13:12:46.111Z,100131.59
2022-12-16T13:16:07.439Z,100128.22
2022-12-16T13:18:54.178Z,100134.59
2022-12-16T13:22:05.059Z,100140.75
2022-12-16T13:25:00.908Z,100141.75
2022-12-16T13:28:03.287Z,100138.50
2022-12-16T13:30:51.978Z,100134.50
2022-12-16T13:33:49.468Z,100143.19
2022-12-16T13:36:37.709Z,100144.31
2022-12-16T13:39:43.346Z,100146.09
2022-12-16T13:43:06.082Z,100153.91
2022-12-16T13:45:54.943Z,100150.56
2022-12-16T13:48:56.530Z,100150.75
2022-12-16T13:52:24.941Z,100154.56
2022-12-16T13:55:30.516Z,100160.94
2022-12-16T13:58:23.488Z,100168.88
2022-12-16T14:01:24.016Z,100156.13
2022-12-16T14:04:12.036Z,100158.81
2022-12-16T14:07:05.436Z,100163.28
2022-12-16T14:09:54.327Z,100177.00
2022-12-16T14:13:03.399Z,100182.16
2022-12-16T14:16:00.573Z,100189.84
2022-12-16T14:18:59.720Z,100199.25
2022-12-16T14:21:52.670Z,100199.03
2022-12-16T14:24:49.529Z,100210.00
2022-12-16T14:27:38.165Z,100215.81
2022-12-16T14:30:37.188Z,100216.47
2022-12-16T14:33:40.120Z,100212.91
2022-12-16T14:36:39.649Z,100218.03
2022-12-16T14:39:30.292Z,100222.28
2022-12-16T14:42:16.848Z,100224.75
2022-12-16T14:45:05.019Z,100227.19
2022-12-16T14:47:58.881Z,100224.53
2022-12-16T14:50:49.162Z,100234.69
2022-12-16T14:53:37.824Z,100237.91
2022-12-16T14:56:35.992Z,100241.06
2022-12-16T14:59:31.615Z,100247.75
2022-12-16T15:02:19.815Z,100248.44
2022-12-16T15:05:04.293Z,100249.84
2022-12-16T15:07:56.218Z,100257.34
2022-12-16T15:10:46.750Z,100272.53
2022-12-16T15:13:36.736Z,100272.31
2022-12-16T15:16:25.110Z,100277.19
2022-12-16T15:19:18.759Z,100283.91
2022-12-16T15:22:06.966Z,100284.44
2022-12-16T15:24:57.985Z,100285.88
2022-12-16T15:27:45.434Z,100293.56
2022-12-16T15:30:51.707Z,100296.81
2022-12-16T15:33:39.812Z,100299.28
2022-12-16T15:36:42.530Z,100309.44
2022-12-16T15:39:38.273Z,100305.97
2022-12-16T15:42:37.304Z,100315.34
2022-12-16T15:45:34.589Z,100317.03
2022-12-16T15:48:32.200Z,100328.94
2022-12-16T15:51:19.598Z,100320.25
2022-12-16T15:54:20.639Z,100320.78
2022-12-16T15:57:08.158Z,100333.41
2022-12-16T15:59:54.091Z,100331.50
2022-12-16T16:02:44.164Z,100331.50
2022-12-16T16:05:33.423Z,100328.78
2022-12-16T16:08:19.829Z,100337.28
2022-12-16T16:11:06.479Z,100340.63
2022-12-16T16:13:55.871Z,100351.66
2022-12-16T16:16:44.688Z,100359.38
2022-12-16T16:19:35.331Z,100359.13
2022-12-16T16:22:21.732Z,100363.47
2022-12-16T16:25:08.288Z,100367.06
2022-12-16T16:27:55.030Z,100367.06
2022-12-16T16:30:42.578Z,100377.34
2022-12-16T16:33:29.402Z,100377.34
2022-12-16T16:36:16.097Z,100386.06
2022-12-16T16:39:02.196Z,100383.50
2022-12-16T16:41:48.180Z,100392.09
2022-12-16T16:44:34.811Z,100394.66
2022-12-16T16:47:22.311Z,100400.69
2022-12-16T16:50:08.829Z,100405.81
2022-12-16T16:52:55.305Z,100399.78
2022-12-16T16:55:43.125Z,100404.78
2022-12-16T16:58:33.007Z,100416.75
2022-12-16T17:01:18.972Z,100416.50
2022-12-16T17:04:06.408Z,100424.84
2022-12-16T17:06:52.573Z,100429.84
2022-12-16T17:09:38.978Z,100421.91
2022-12-16T17:12:36.403Z,100438.22
2022-12-16T17:15:35.945Z,100425.28
2022-12-16T17:18:22.854Z,100438.22
2022-12-16T17:21:11.004Z,100438.22
2022-12-16T17:23:58.004Z,100441.56
2022-12-16T17:26:44.333Z,100444.88
2022-12-16T17:29:37.199Z,100450.03
2022-12-16T17:32:23.359Z,100448.47
2022-12-16T17:35:09.828Z,100459.78
2022-12-16T17:37:57.510Z,100463.22
2022-12-16T17:40:43.882Z,100464.13
2022-12-16T17:43:30.409Z,100467.59
2022-12-16T17:46:19.078Z,100483.09
2022-12-16T17:49:09.912Z,100482.22
2022-12-16T17:51:55.710Z,100484.91
2022-12-16T17:54:43.522Z,100487.59
2022-12-16T17:57:29.888Z,100487.72
2022-12-16T18:00:24.006Z,100490.28
2022-12-16T18:03:10.621Z,100500.56
2022-12-16T18:05:57.085Z,100490.28
2022-12-16T18:08:43.558Z,100509.94
2022-12-16T18:11:34.658Z,100509.16
2022-12-16T18:14:24.930Z,100505.69
2022-12-16T18:17:11.373Z,100504.91
2022-12-16T18:19:57.980Z,100507.47
2022-12-16T18:22:43.999Z,100511.06
2022-12-16T18:25:30.386Z,100510.28
2022-12-16T18:28:17.814Z,100514.66
2022-12-16T18:31:04.289Z,100515.69
2022-12-16T18:33:50.098Z,100509.00
2022-12-16T18:36:36.360Z,100505.66
2022-12-16T18:39:22.518Z,100510.94
2022-12-16T18:42:08.575Z,100513.59
2022-12-16T18:45:01.276Z,100510.28
2022-12-16T18:47:48.892Z,100517.31
2022-12-16T18:50:37.955Z,100525.91
2022-12-16T18:53:25.338Z,100523.44
2022-12-16T18:56:23.011Z,100530.25
2022-12-16T18:59:10.786Z,100531.16
2022-12-16T19:01:59.039Z,100533.72
2022-12-16T19:04:45.709Z,100534.66
2022-12-16T19:07:33.946Z,100535.41
2022-12-16T19:10:20.249Z,100534.50
2022-12-16T19:13:06.532Z,100543.09
2022-12-16T19:15:53.034Z,100546.47
2022-12-16T19:18:40.954Z,100547.22
2022-12-16T19:21:28.428Z,100557.47
2022-12-16T19:24:14.454Z,100560.06
2022-12-16T19:27:00.316Z,100558.28
2022-12-16T19:29:46.029Z,100557.38
2022-12-16T19:32:32.028Z,100560.84
2022-12-16T19:35:19.821Z,100564.28
2022-12-16T19:38:05.592Z,100561.88
2022-12-16T19:40:51.448Z,100572.88
2022-12-16T19:43:39.437Z,100589.22
2022-12-16T19:46:27.282Z,100582.41
2022-12-16T19:49:14.125Z,100590.88
2022-12-16T19:52:01.529Z,100596.78
2022-12-16T19:54:47.419Z,100588.28
2022-12-16T19:57:33.211Z,100596.78
2022-12-16T20:00:19.663Z,100595.75
2022-12-16T20:03:05.733Z,100592.44
2022-12-16T20:05:52.384Z,100589.72
2022-12-16T20:08:40.987Z,100602.72
2022-12-16T20:11:28.677Z,100604.34
2022-12-16T20:14:16.069Z,100609.50
2022-12-16T20:17:17.207Z,100618.78
2022-12-16T20:20:06.658Z,100610.94
2022-12-16T20:22:53.080Z,100610.03
2022-12-16T20:25:44.118Z,100619.41
2022-12-16T20:28:30.812Z,100619.41
2022-12-16T20:31:28.482Z,100612.59
2022-12-16T20:34:15.496Z,100617.84
2022-12-16T20:37:01.808Z,100619.66
2022-12-16T20:39:56.359Z,100619.66
2022-12-16T20:42:45.364Z,100629.13
2022-12-16T20:45:35.860Z,100628.25
2022-12-16T20:48:22.608Z,100628.38
2022-12-16T20:51:13.157Z,100636.09
2022-12-16T20:53:59.635Z,100637.88
2022-12-16T20:56:46.172Z,100641.34
2022-12-16T20:59:39.155Z,100640.59
2022-12-16T21:02:30.350Z,100639.56
2022-12-16T21:05:19.416Z,100649.94
2022-12-16T21:08:05.403Z,100655.06
2022-12-16T21:10:51.788Z,100662.78
2022-12-16T21:13:38.036Z,100661.88
2022-12-16T21:16:26.227Z,100667.16
2022-12-16T21:19:12.656Z,100671.41
2022-12-16T21:22:01.461Z,100672.16
2022-12-16T21:24:47.847Z,100673.03
2022-12-16T21:27:33.913Z,100681.53
2022-12-16T21:30:20.026Z,100690.03
2022-12-16T21:33:08.818Z,100695.16
2022-12-16T21:35:56.492Z,100700.28
2022-12-16T21:38:42.480Z,100702.72
2022-12-16T21:41:29.593Z,100703.59
2022-12-16T21:44:16.100Z,100705.44
2022-12-16T21:47:02.241Z,100706.41
2022-12-16T21:49:49.789Z,100711.44
2022-12-16T21:52:36.263Z,100716.44
2022-12-16T21:55:22.701Z,100720.84
2022-12-16T21:58:08.943Z,100719.00
2022-12-16T22:00:58.791Z,100726.72
2022-12-16T22:03:52.663Z,100730.81
2022-12-16T22:06:37.740Z,100730.97
2022-12-16T22:09:24.154Z,100737.88
2022-12-16T22:12:09.996Z,100731.84
2022-12-16T22:14:56.275Z,100736.09
2022-12-16T22:17:42.390Z,100742.66
2022-12-16T22:20:28.889Z,100739.81
2022-12-16T22:23:17.065Z,100738.91
2022-12-16T22:26:03.217Z,100750.88
2022-12-16T22:28:49.434Z,100755.09
2022-12-16T22:31:35.839Z,100758.19
2022-12-16T22:34:27.099Z,100762.16
2022-12-16T22:37:13.282Z,100761.13
2022-12-16T22:40:01.109Z,100759.31
2022-12-16T22:42:47.449Z,100763.56
2022-12-16T22:45:33.360Z,100765.22
2022-12-16T22:48:19.460Z,100770.38
2022-12-16T22:51:05.814Z,100778.06
2022-12-16T22:53:51.775Z,100781.41
2022-12-16T22:56:39.515Z,100775.34
2022-12-16T22:59:25.428Z,100783.97
2022-12-16T23:02:13.658Z,100782.16
2022-12-16T23:05:00.012Z,100790.00
2022-12-16T23:07:46.101Z,100807.19
2022-12-16T23:10:32.348Z,100794.50
2022-12-16T23:13:19.594Z,100791.78
2022-12-16T23:16:06.062Z,100796.03
2022-12-16T23:18:52.386Z,100793.47
2022-12-16T23:21:38.783Z,100796.03
2022-12-16T23:24:26.787Z,100796.94
2022-12-16T23:27:17.129Z,100802.06
2022-12-16T23:30:04.381Z,100802.97
2022-12-16T23:32:50.131Z,100807.34
2022-12-16T23:35:36.517Z,100802.22
2022-12-16T23:38:24.237Z,100806.56
2022-12-16T23:41:14.145Z,100807.44
2022-12-16T23:43:59.904Z,100805.66
2022-12-16T23:46:47.744Z,100809.13
2022-12-16T23:49:33.655Z,100798.84
2022-12-16T23:52:19.213Z,100810.94
2022-12-16T23:55:05.513Z,100813.63
2022-12-16T23:57:51.372Z,100813.50
